Ocotillo, California
Current Conditions -  °F | °C
As of 1:56 AM on Wednesday 26 Nov 2014 (Local Time) from KNJK Reporting Station
Clear Clear  
Wind Chill: 44°   Ceiling: Unl
Heat Index: 47°   Visibility: 10mi
Dew Point: 18°   Wind: 6mph
Humidity: 32%   Direction: 270°W
Pressure: 30.27"   Gusts: NA
Location:  32.74°N, 115.99°W
Report Text: KNJK 260956Z AUTO 27005KT 10SM CLR 08/M08 A3027 RMK AO2 SLP267 T00831078
Loading
Personal Weather Stations






























Interactive Weather Map New forecast layout! Learn more

10-Day Weather Forecast

Advertisements
Track Severe Weather on mobile